Time;durP1;ratioP1;P1;durP2;ratioP2;P2;SDS_P1;SDS_P2;PMS_P1;PMS_P2;Temp;Humidity;BMP_temperature;BMP_pressure;BME280_temperature;BME280_humidity;BME280_pressure;Samples;Min_cycle;Max_cycle;Signal;HPM_P1;HPM_P2
2024/01/16 00:00:37;;;;;;;5.07;1.52;;;;;;;-1.85;100.00;100649.66;1028160;28;20856;-51
2024/01/16 00:01:28;;;;;;;9.18;1.83;;;;;;;-1.88;100.00;100652.56;1028559;28;20361;-49
2024/01/16 00:02:34;;;;;;;10.32;2.30;;;;;;;-1.94;100.00;100650.47;1028362;28;20345;-49
2024/01/16 00:03:09;;;;;;;5.05;1.17;;;;;;;-1.95;100.00;100651.44;1030937;28;20811;-46
2024/01/16 00:04:05;;;;;;;6.95;2.28;;;;;;;-1.94;100.00;100663.53;1029531;28;20321;-47
2024/01/16 00:04:41;;;;;;;7.00;2.25;;;;;;;-1.95;100.00;100659.28;1031769;28;20362;-49
2024/01/16 00:05:55;;;;;;;3.60;1.80;;;;;;;-2.01;100.00;100659.84;1028345;28;20307;-49
2024/01/16 00:06:39;;;;;;;8.30;1.73;;;;;;;-2.03;100.00;100659.16;1024116;28;20806;-50
2024/01/16 00:07:41;;;;;;;7.28;1.83;;;;;;;-2.05;100.00;100656.69;1029364;28;20325;-47
2024/01/16 00:08:50;;;;;;;6.15;1.45;;;;;;;-2.10;100.00;100665.91;1025532;28;20690;-45
2024/01/16 00:09:38;;;;;;;8.63;1.77;;;;;;;-2.12;100.00;100662.59;1028994;28;20838;-46
2024/01/16 00:10:27;;;;;;;6.38;1.95;;;;;;;-2.14;100.00;100661.94;1031919;28;20310;-46
2024/01/16 00:11:35;;;;;;;9.60;1.90;;;;;;;-2.09;100.00;100662.31;1025200;28;20311;-49
2024/01/16 00:12:42;;;;;;;13.75;3.55;;;;;;;-2.06;100.00;100662.88;1023336;29;20318;-52
2024/01/16 00:14:09;;;;;;;7.72;3.65;;;;;;;-2.00;100.00;100661.47;1025333;28;20379;-45
2024/01/16 00:15:10;;;;;;;3.08;1.42;;;;;;;-1.96;100.00;100662.84;1030529;28;20317;-52
2024/01/16 00:16:05;;;;;;;2.22;1.52;;;;;;;-1.98;100.00;100672.59;1028637;28;20062;-48
2024/01/16 00:17:28;;;;;;;10.43;2.53;;;;;;;-1.98;100.00;100670.00;1024690;28;20310;-47
2024/01/16 00:18:43;;;;;;;5.10;1.63;;;;;;;-2.10;100.00;100671.13;1036095;28;20343;-45
2024/01/16 00:19:52;;;;;;;11.45;2.63;;;;;;;-2.03;100.00;100677.41;1026381;28;20801;-50
2024/01/16 00:21:57;;;;;;;6.35;1.95;;;;;;;-1.99;100.00;100678.78;1027560;28;20369;-48
2024/01/16 00:22:51;;;;;;;13.48;1.63;;;;;;;-1.96;100.00;100668.88;1032007;28;20345;-49
2024/01/16 00:23:37;;;;;;;6.74;1.82;;;;;;;-1.92;100.00;100682.47;1029283;28;20313;-47
2024/01/16 00:24:38;;;;;;;7.15;1.95;;;;;;;-1.88;100.00;100676.03;1025824;28;20043;-49
2024/01/16 00:25:27;;;;;;;10.63;2.15;;;;;;;-1.78;100.00;100682.06;1023427;29;20318;-47
2024/01/16 00:26:38;;;;;;;4.78;1.77;;;;;;;-1.74;100.00;100677.38;1019317;29;20307;-50
2024/01/16 00:27:46;;;;;;;9.48;2.00;;;;;;;-1.71;100.00;100677.91;1008676;29;20065;-49
2024/01/16 00:28:33;;;;;;;13.00;2.20;;;;;;;-1.72;100.00;100681.50;1015260;29;20869;-45
2024/01/16 00:29:26;;;;;;;4.28;1.73;;;;;;;-1.71;100.00;100680.53;1014356;29;20311;-46
2024/01/16 00:30:34;;;;;;;6.82;1.70;;;;;;;-1.67;100.00;100679.28;1019318;29;20318;-48
2024/01/16 00:31:27;;;;;;;12.70;2.47;;;;;;;-1.61;100.00;100688.34;1029149;28;20784;-46
2024/01/16 00:32:47;;;;;;;14.18;3.03;;;;;;;-1.58;100.00;100677.63;1036647;28;20381;-46
2024/01/16 00:33:41;;;;;;;8.90;2.10;;;;;;;-1.49;100.00;100678.56;1028654;28;20694;-49
2024/01/16 00:34:50;;;;;;;9.65;1.98;;;;;;;-1.52;100.00;100677.06;1026139;28;20307;-46
2024/01/16 00:35:39;;;;;;;8.52;2.20;;;;;;;-1.48;100.00;100677.59;1027477;28;20395;-46
2024/01/16 00:36:20;;;;;;;14.80;3.05;;;;;;;-1.54;100.00;100672.94;1032084;28;20329;-45
2024/01/16 00:37:14;;;;;;;17.15;4.47;;;;;;;-1.63;100.00;100672.84;1017430;29;20313;-46
2024/01/16 00:39:13;;;;;;;6.30;1.92;;;;;;;-1.67;100.00;100678.47;1029571;28;20349;-49
2024/01/16 00:40:08;;;;;;;4.35;1.77;;;;;;;-1.68;100.00;100672.41;1031848;28;20305;-46
2024/01/16 00:40:57;;;;;;;14.20;2.88;;;;;;;-1.73;100.00;100673.81;1028491;28;20646;-45
2024/01/16 00:41:48;;;;;;;5.30;2.45;;;;;;;-1.76;100.00;100669.69;1024739;28;20307;-49
2024/01/16 00:42:41;;;;;;;5.00;2.08;;;;;;;-1.79;100.00;100667.38;1028211;28;20345;-45
2024/01/16 00:43:38;;;;;;;4.47;2.17;;;;;;;-1.84;100.00;100676.59;1033521;28;20348;-45
2024/01/16 00:44:24;;;;;;;4.25;2.10;;;;;;;-1.87;100.00;100681.13;1029924;28;20441;-46
2024/01/16 00:45:17;;;;;;;7.05;3.53;;;;;;;-1.90;100.00;100678.78;1031214;28;20305;-47
2024/01/16 00:47:11;;;;;;;6.97;2.58;;;;;;;-1.93;100.00;100673.81;1032732;28;20459;-49
2024/01/16 00:48:20;;;;;;;8.40;2.00;;;;;;;-1.89;100.00;100677.00;1031844;28;20367;-49
2024/01/16 00:49:14;;;;;;;6.95;3.35;;;;;;;-1.87;100.00;100680.31;1026790;28;20306;-46
2024/01/16 00:50:19;;;;;;;6.03;2.95;;;;;;;-1.89;100.00;100684.84;1031070;28;20301;-49
2024/01/16 00:51:29;;;;;;;9.73;2.60;;;;;;;-1.90;100.00;100683.19;1032461;28;20324;-45
2024/01/16 00:52:24;;;;;;;7.45;2.30;;;;;;;-1.93;100.00;100684.28;1035850;28;20297;-49
2024/01/16 00:53:36;;;;;;;5.32;3.03;;;;;;;-1.93;100.00;100684.28;1034535;28;20403;-49
2024/01/16 00:54:39;;;;;;;12.27;2.28;;;;;;;-2.02;100.00;100692.13;1027497;28;20137;-50
2024/01/16 00:55:32;;;;;;;15.30;3.17;;;;;;;-1.98;100.00;100688.25;1028407;28;20298;-45
2024/01/16 00:57:54;;;;;;;9.25;2.67;;;;;;;-2.03;100.00;100688.69;1023261;28;20719;-45
2024/01/16 00:58:49;;;;;;;10.57;4.50;;;;;;;-1.89;100.00;100695.28;1032786;28;20312;-45
2024/01/16 00:59:43;;;;;;;9.02;2.33;;;;;;;-1.93;100.00;100694.72;1027634;28;20311;-50
2024/01/16 01:00:37;;;;;;;10.20;2.72;;;;;;;-1.97;100.00;100693.34;1023152;29;20308;-46
2024/01/16 01:01:30;;;;;;;6.18;3.38;;;;;;;-1.91;100.00;100686.78;1027397;28;20299;-46
2024/01/16 01:02:46;;;;;;;8.43;2.67;;;;;;;-1.92;100.00;100695.53;1008950;29;20850;-49
2024/01/16 01:03:41;;;;;;;8.74;2.78;;;;;;;-1.78;100.00;100692.50;1026670;28;20310;-49
2024/01/16 01:04:28;;;;;;;5.18;2.65;;;;;;;-1.74;100.00;100696.47;1021892;28;20039;-47
2024/01/16 01:05:28;;;;;;;9.13;3.28;;;;;;;-1.75;100.00;100692.22;1020427;28;20865;-45
2024/01/16 01:06:20;;;;;;;9.55;3.15;;;;;;;-1.80;100.00;100694.44;1023341;28;20299;-49
2024/01/16 01:07:19;;;;;;;12.85;2.70;;;;;;;-1.78;100.00;100692.50;1025162;28;20341;-49
2024/01/16 01:08:04;;;;;;;6.88;3.03;;;;;;;-1.75;100.00;100694.84;1018889;29;20315;-45
2024/01/16 01:09:18;;;;;;;4.57;2.47;;;;;;;-1.81;100.00;100687.56;1022119;29;20335;-45
2024/01/16 01:10:06;;;;;;;6.78;2.78;;;;;;;-1.77;100.00;100688.94;1019995;29;20307;-46
2024/01/16 01:10:54;;;;;;;4.78;2.78;;;;;;;-1.72;100.00;100696.34;1019618;29;20123;-50
2024/01/16 01:11:41;;;;;;;4.88;2.20;;;;;;;-1.84;100.00;100681.81;1016629;29;20040;-49
2024/01/16 01:12:33;;;;;;;12.65;3.63;;;;;;;-1.72;100.00;100685.91;1017294;29;20308;-44
2024/01/16 01:13:55;;;;;;;7.55;2.65;;;;;;;-1.74;100.00;100680.00;1018944;29;20303;-49
2024/01/16 01:15:01;;;;;;;2.85;2.15;;;;;;;-1.65;100.00;100685.19;1013750;29;20318;-46
2024/01/16 01:15:45;;;;;;;12.15;3.03;;;;;;;-1.63;100.00;100685.91;1014108;29;20926;-47
2024/01/16 01:16:32;;;;;;;13.60;3.48;;;;;;;-1.66;100.00;100686.16;1021130;28;21121;-48
2024/01/16 01:17:43;;;;;;;10.84;2.98;;;;;;;-1.70;100.00;100684.78;1019995;29;20596;-49
2024/01/16 01:18:52;;;;;;;8.95;2.17;;;;;;;-1.74;100.00;100693.03;1029763;28;20308;-49
2024/01/16 01:20:00;;;;;;;10.68;3.25;;;;;;;-1.82;100.00;100691.16;1020613;29;20310;-48
2024/01/16 01:21:22;;;;;;;5.78;3.22;;;;;;;-1.79;100.00;100688.25;1019135;29;20299;-49
2024/01/16 01:22:05;;;;;;;15.85;2.95;;;;;;;-1.78;100.00;100687.28;1023384;28;20565;-49
2024/01/16 01:22:55;;;;;;;5.50;2.20;;;;;;;-1.72;100.00;100696.34;1026535;29;20375;-47
2024/01/16 01:23:58;;;;;;;15.82;2.90;;;;;;;-1.73;100.00;100695.50;994439;29;20866;-47
2024/01/16 01:24:38;;;;;;;11.52;2.85;;;;;;;-1.81;100.00;100698.00;1014602;29;20308;-46
2024/01/16 01:25:29;;;;;;;7.47;2.17;;;;;;;-1.89;100.00;100690.88;1018131;29;20742;-50
2024/01/16 01:26:25;;;;;;;5.58;2.76;;;;;;;-1.91;100.00;100702.44;1019837;29;20654;-49
2024/01/16 01:27:09;;;;;;;8.06;2.72;;;;;;;-1.90;100.00;100698.84;1015202;29;20051;-48
2024/01/16 01:28:11;;;;;;;6.97;2.35;;;;;;;-1.83;100.00;100694.72;1019093;29;20513;-46
2024/01/16 01:29:09;;;;;;;5.85;1.88;;;;;;;-1.85;100.00;100701.88;1026929;28;20311;-46
2024/01/16 01:29:53;;;;;;;5.47;2.63;;;;;;;-1.86;100.00;100700.22;1024404;28;20391;-50
2024/01/16 01:30:45;;;;;;;7.54;2.40;;;;;;;-1.87;100.00;100702.00;1018026;29;20825;-46
2024/01/16 01:31:36;;;;;;;11.02;3.83;;;;;;;-1.93;100.00;100704.31;1020052;29;20276;-45
2024/01/16 01:32:33;;;;;;;10.30;3.38;;;;;;;-1.89;100.00;100695.28;1026943;28;20294;-46
2024/01/16 01:33:43;;;;;;;3.96;2.04;;;;;;;-1.89;100.00;100698.72;1028311;28;20306;-46
2024/01/16 01:34:31;;;;;;;5.35;2.47;;;;;;;-1.92;100.00;100705.97;1030666;28;20043;-49
2024/01/16 01:35:36;;;;;;;12.05;3.03;;;;;;;-1.88;100.00;100691.72;1022328;28;20690;-49
2024/01/16 01:36:29;;;;;;;16.40;3.50;;;;;;;-1.94;100.00;100708.72;1025811;28;20902;-46
2024/01/16 01:37:25;;;;;;;16.33;3.33;;;;;;;-1.88;100.00;100704.75;1015408;29;20819;-46
2024/01/16 01:38:10;;;;;;;8.02;2.70;;;;;;;-1.92;100.00;100698.13;1008359;29;20975;-45
2024/01/16 01:39:08;;;;;;;8.82;2.20;;;;;;;-1.94;100.00;100697.47;1019217;29;20296;-47
2024/01/16 01:40:15;;;;;;;8.05;2.55;;;;;;;-1.95;100.00;100701.84;1025696;28;20717;-45
2024/01/16 01:41:16;;;;;;;;;;;;;;;;;;;;;
2024/01/16 01:42:11;;;;;;;7.12;2.44;;;;;;;-1.85;100.00;100693.22;1023901;29;20754;-45
2024/01/16 01:43:28;;;;;;;6.55;2.65;;;;;;;-1.91;100.00;100710.25;1026745;28;20054;-46
2024/01/16 01:44:35;;;;;;;6.95;2.47;;;;;;;-1.90;100.00;100704.06;1022090;29;20299;-46
2024/01/16 01:45:21;;;;;;;11.18;2.53;;;;;;;-1.96;100.00;100694.16;1024590;28;20306;-45
2024/01/16 01:46:22;;;;;;;6.38;2.03;;;;;;;-1.93;100.00;100699.09;1022791;29;20313;-46
2024/01/16 01:47:20;;;;;;;5.40;1.88;;;;;;;-1.89;100.00;100700.50;1021530;28;20179;-45
2024/01/16 01:48:22;;;;;;;6.95;1.77;;;;;;;-1.89;100.00;100703.13;1023606;28;20322;-45
2024/01/16 01:50:09;;;;;;;7.80;2.88;;;;;;;-1.87;100.00;100703.78;1030732;28;20293;-48
2024/01/16 01:51:06;;;;;;;7.88;1.95;;;;;;;-1.93;100.00;100704.31;1032177;28;20042;-46
2024/01/16 01:51:54;;;;;;;4.18;2.15;;;;;;;-1.93;100.00;100705.16;1023347;28;20726;-45
2024/01/16 01:52:50;;;;;;;16.48;2.80;;;;;;;-1.85;100.00;100701.88;1021556;29;20403;-49
2024/01/16 01:53:57;;;;;;;6.18;2.75;;;;;;;-1.89;100.00;100703.13;1023091;28;20308;-46
2024/01/16 01:56:02;;;;;;;9.30;2.40;;;;;;;-1.97;100.00;100701.16;1030782;28;19926;-45
2024/01/16 01:56:47;;;;;;;4.88;2.22;;;;;;;-1.98;100.00;100701.31;1039834;28;20391;-46
2024/01/16 01:58:06;;;;;;;13.50;2.47;;;;;;;-2.02;100.00;100713.00;1026258;28;20077;-45
2024/01/16 01:58:55;;;;;;;14.96;2.08;;;;;;;-2.09;100.00;100710.13;1026405;28;20781;-50
2024/01/16 02:00:01;;;;;;;10.80;2.26;;;;;;;-2.07;100.00;100710.81;1030527;28;20102;-46
2024/01/16 02:00:57;;;;;;;4.22;2.20;;;;;;;-1.98;100.00;100707.34;1026645;28;20062;-49
2024/01/16 02:02:08;;;;;;;4.22;2.13;;;;;;;-2.00;100.00;100711.06;1023241;28;20316;-49
2024/01/16 02:02:58;;;;;;;3.85;1.85;;;;;;;-1.95;100.00;100712.28;1018802;28;20311;-50
2024/01/16 02:03:44;;;;;;;5.97;2.15;;;;;;;-2.08;100.00;100713.56;1023790;28;20046;-46
2024/01/16 02:04:35;;;;;;;8.30;2.00;;;;;;;-2.13;100.00;100710.53;1018643;29;20775;-49
2024/01/16 02:05:23;;;;;;;8.25;2.35;;;;;;;-2.02;100.00;100715.59;1022840;29;20338;-45
2024/01/16 02:07:14;;;;;;;8.38;3.35;;;;;;;-1.97;100.00;100709.00;1022377;29;20398;-49
2024/01/16 02:08:15;;;;;;;4.55;2.28;;;;;;;-2.03;100.00;100712.16;1026086;28;20824;-46
2024/01/16 02:08:49;;;;;;;13.50;2.72;;;;;;;-2.05;100.00;100713.28;1035211;28;20305;-49
2024/01/16 02:09:56;;;;;;;2.17;1.90;;;;;;;-2.08;100.00;100708.34;1032334;28;20396;-47
2024/01/16 02:11:09;;;;;;;9.96;1.80;;;;;;;-2.19;100.00;100709.31;1027159;28;20375;-49
2024/01/16 02:12:24;;;;;;;4.72;2.60;;;;;;;-2.11;100.00;100713.84;1030850;28;20560;-49
2024/01/16 02:13:32;;;;;;;8.68;3.58;;;;;;;-2.01;100.00;100709.41;1027181;28;20312;-48
2024/01/16 02:14:33;;;;;;;4.50;1.65;;;;;;;-2.10;100.00;100710.25;1031796;28;22489;-49
2024/01/16 02:15:28;;;;;;;8.48;2.00;;;;;;;-1.96;100.00;100709.81;1025070;28;20306;-48
2024/01/16 02:16:21;;;;;;;9.63;2.03;;;;;;;-1.94;100.00;100705.28;1016023;29;20738;-47
2024/01/16 02:17:08;;;;;;;6.56;1.80;;;;;;;-2.08;100.00;100710.94;1023170;29;20477;-45
2024/01/16 02:18:16;;;;;;;3.80;1.63;;;;;;;-2.03;100.00;100713.97;1022234;28;20066;-46
2024/01/16 02:19:13;;;;;;;9.48;1.20;;;;;;;-1.89;100.00;100700.50;1027526;28;20398;-46
2024/01/16 02:20:18;;;;;;;7.05;1.20;;;;;;;-1.94;100.00;100713.94;1024084;29;20317;-45
2024/01/16 02:21:17;;;;;;;12.15;2.40;;;;;;;-1.84;100.00;100707.91;1028616;28;20369;-50
2024/01/16 02:22:23;;;;;;;5.75;1.63;;;;;;;-1.96;100.00;100715.03;1015529;29;20833;-50
2024/01/16 02:23:13;;;;;;;4.95;2.50;;;;;;;-1.90;100.00;100704.06;1020513;29;20892;-45
2024/01/16 02:24:10;;;;;;;6.55;2.30;;;;;;;-1.85;100.00;100701.88;1023872;28;20390;-49
2024/01/16 02:24:58;;;;;;;10.10;1.68;;;;;;;-1.81;100.00;100705.03;1022102;29;20804;-45
2024/01/16 02:26:02;;;;;;;14.20;4.45;;;;;;;-1.79;100.00;100698.69;1021584;29;20082;-47
2024/01/16 02:26:46;;;;;;;10.60;2.15;;;;;;;-1.90;100.00;100704.06;1027707;28;20310;-46
2024/01/16 02:27:57;;;;;;;10.63;2.00;;;;;;;-2.03;100.00;100703.53;1023794;28;20347;-49
2024/01/16 02:28:47;;;;;;;8.57;1.80;;;;;;;-1.98;100.00;100706.53;1022952;28;20047;-49
2024/01/16 02:30:01;;;;;;;7.26;1.80;;;;;;;-1.92;100.00;100705.97;1020234;29;20322;-47
2024/01/16 02:30:42;;;;;;;1.95;1.13;;;;;;;-1.98;100.00;100706.53;1025471;28;20043;-45
2024/01/16 02:31:24;;;;;;;7.63;1.83;;;;;;;-1.88;100.00;100708.19;1029301;28;20316;-46
2024/01/16 02:32:18;;;;;;;15.00;2.45;;;;;;;-1.79;100.00;100706.53;1028862;28;20329;-49
2024/01/16 02:33:12;;;;;;;10.73;1.92;;;;;;;-1.79;100.00;100711.75;1028124;28;20685;-46
2024/01/16 02:34:21;;;;;;;5.30;2.16;;;;;;;-1.79;100.00;100709.13;1028853;28;20305;-49
2024/01/16 02:35:18;;;;;;;8.63;1.77;;;;;;;-1.75;100.00;100714.91;1031777;28;20058;-45
2024/01/16 02:36:04;;;;;;;5.72;3.47;;;;;;;-1.69;100.00;100711.72;1023887;28;20321;-47
2024/01/16 02:37:38;;;;;;;6.40;2.30;;;;;;;-1.69;100.00;100716.94;1024888;28;20962;-50
2024/01/16 02:38:28;;;;;;;4.48;1.88;;;;;;;-1.75;100.00;100718.34;1024165;28;20423;-45
2024/01/16 02:39:21;;;;;;;13.70;2.76;;;;;;;-1.73;100.00;100719.00;1019067;29;20048;-45
2024/01/16 02:41:34;;;;;;;8.90;1.96;;;;;;;-1.68;100.00;100723.81;1031067;28;20511;-45
2024/01/16 02:42:27;;;;;;;6.13;1.35;;;;;;;-1.71;100.00;100724.09;1032124;28;20264;-46
2024/01/16 02:43:08;;;;;;;7.50;2.12;;;;;;;-1.70;100.00;100725.75;1033342;28;20395;-48
2024/01/16 02:43:39;;;;;;;4.70;1.30;;;;;;;-1.70;100.00;100721.34;1031204;28;20053;-50
2024/01/16 02:44:28;;;;;;;6.75;1.48;;;;;;;-1.82;100.00;100727.69;1035309;28;20388;-50
2024/01/16 02:45:18;;;;;;;8.55;1.98;;;;;;;-1.73;100.00;100721.63;1030213;28;20303;-47
2024/01/16 02:46:06;;;;;;;4.66;1.88;;;;;;;-1.66;100.00;100722.69;1027599;28;20298;-45
2024/01/16 02:46:41;;;;;;;4.10;2.26;;;;;;;-1.66;100.00;100722.69;1027802;28;20374;-50
2024/01/16 02:47:29;;;;;;;12.50;1.85;;;;;;;-1.63;100.00;100725.06;1034962;28;20050;-49
2024/01/16 02:49:51;;;;;;;9.92;1.32;;;;;;;-1.65;100.00;100718.31;1033508;28;20042;-47
2024/01/16 02:50:41;;;;;;;5.25;1.70;;;;;;;-1.64;100.00;100720.81;1029746;28;20073;-45
2024/01/16 02:51:29;;;;;;;4.43;1.70;;;;;;;-1.61;100.00;100724.91;1024284;29;20321;-49
2024/01/16 02:52:25;;;;;;;7.78;1.70;;;;;;;-1.67;100.00;100717.63;1019460;29;20071;-49
2024/01/16 02:53:14;;;;;;;2.40;1.36;;;;;;;-1.66;100.00;100717.47;1017819;29;20300;-46
2024/01/16 02:54:12;;;;;;;3.63;1.27;;;;;;;-1.65;100.00;100719.13;1025342;28;20047;-49
2024/01/16 02:55:26;;;;;;;9.18;2.70;;;;;;;-1.64;100.00;100719.97;1032338;28;20138;-50
2024/01/16 02:56:05;;;;;;;1.92;1.22;;;;;;;-1.68;100.00;100716.81;1033564;28;20061;-48
2024/01/16 02:57:05;;;;;;;13.35;2.00;;;;;;;-1.73;100.00;100713.78;1028066;28;20062;-49
2024/01/16 02:57:47;;;;;;;9.05;1.85;;;;;;;-1.74;100.00;100719.16;1028574;28;20847;-47
2024/01/16 02:58:35;;;;;;;5.02;1.90;;;;;;;-1.71;100.00;100724.91;1021336;28;20375;-48
2024/01/16 02:59:56;;;;;;;5.25;1.75;;;;;;;-1.75;100.00;100717.50;1022534;28;20039;-47
2024/01/16 03:00:49;;;;;;;4.32;1.48;;;;;;;-1.70;100.00;100710.91;1023470;28;20300;-45
2024/01/16 03:01:32;;;;;;;6.53;1.70;;;;;;;-1.63;100.00;100708.56;1021323;29;20330;-49
2024/01/16 03:02:22;;;;;;;6.80;1.85;;;;;;;-1.58;100.00;100709.78;1027118;28;20405;-46
2024/01/16 03:03:15;;;;;;;12.20;2.38;;;;;;;-1.60;100.00;100711.72;1023885;28;20314;-49
2024/01/16 03:04:02;;;;;;;7.78;2.70;;;;;;;-1.56;100.00;100710.47;1023323;29;20646;-48
2024/01/16 03:05:05;;;;;;;5.36;1.66;;;;;;;-1.58;100.00;100712.41;1028979;28;20310;-49
2024/01/16 03:05:47;;;;;;;8.32;1.88;;;;;;;-1.55;100.00;100716.50;1029220;28;20385;-51
2024/01/16 03:06:34;;;;;;;4.28;1.70;;;;;;;-1.66;100.00;100712.25;1022603;29;20914;-45
2024/01/16 03:07:33;;;;;;;17.83;2.78;;;;;;;-1.55;100.00;100708.69;1023669;28;20736;-46
2024/01/16 03:08:21;;;;;;;4.80;1.64;;;;;;;-1.50;100.00;100710.88;1019805;29;20304;-46
2024/01/16 03:09:30;;;;;;;5.76;1.54;;;;;;;-1.51;100.00;100710.03;1025654;29;20090;-47
2024/01/16 03:10:32;;;;;;;8.63;2.10;;;;;;;-1.50;100.00;100710.88;1025179;28;20146;-50
2024/01/16 03:11:34;;;;;;;5.07;2.30;;;;;;;-1.44;100.00;100718.13;1026462;28;20322;-46
2024/01/16 03:12:32;;;;;;;;;;;;;;;-1.44;100.00;100720.75;1026138;29;20317;-45
2024/01/16 03:13:37;;;;;;;5.52;1.70;;;;;;;-1.48;100.00;100722.00;1030061;28;19922;-49
2024/01/16 03:14:38;;;;;;;5.00;2.16;;;;;;;-1.48;100.00;100724.59;1026994;28;20456;-45
2024/01/16 03:15:42;;;;;;;10.98;1.90;;;;;;;-1.43;100.00;100719.78;1023983;28;20113;-46
2024/01/16 03:16:39;;;;;;;3.40;1.76;;;;;;;-1.39;100.00;100718.53;1021067;29;20855;-45
2024/01/16 03:17:36;;;;;;;6.68;2.25;;;;;;;-1.37;100.00;100727.03;1023145;29;20068;-49
2024/01/16 03:18:20;;;;;;;7.14;1.88;;;;;;;-1.40;100.00;100722.09;1019141;29;20319;-46
2024/01/16 03:19:25;;;;;;;5.60;1.98;;;;;;;-1.45;100.00;100719.91;1025736;29;20043;-49
2024/01/16 03:20:17;;;;;;;15.50;3.95;;;;;;;-1.44;100.00;100720.75;1024232;28;20449;-45
2024/01/16 03:20:59;;;;;;;7.28;1.90;;;;;;;-1.38;100.00;100720.16;1022875;28;20332;-45
2024/01/16 03:21:54;;;;;;;7.20;2.60;;;;;;;-1.39;100.00;100718.53;1019267;29;20323;-47
2024/01/16 03:23:12;;;;;;;5.97;1.77;;;;;;;-1.36;100.00;100715.66;1020388;29;20330;-45
2024/01/16 03:24:31;;;;;;;8.82;2.44;;;;;;;-1.32;100.00;100709.19;1029823;28;20781;-49
2024/01/16 03:25:16;;;;;;;4.66;2.54;;;;;;;-1.30;100.00;100713.28;1021883;29;20075;-51
2024/01/16 03:26:01;;;;;;;10.60;2.53;;;;;;;-1.32;100.00;100715.22;1019893;29;20175;-46
2024/01/16 03:26:52;;;;;;;5.20;2.25;;;;;;;-1.34;100.00;100711.09;1023065;28;20817;-46
2024/01/16 03:27:48;;;;;;;5.02;2.40;;;;;;;-1.36;100.00;100713.03;1018531;28;20126;-49
2024/01/16 03:28:42;;;;;;;4.15;1.60;;;;;;;-1.37;100.00;100711.38;1020856;28;20865;-46
2024/01/16 03:29:40;;;;;;;7.25;1.67;;;;;;;-1.37;100.00;100711.38;1026764;28;20310;-45
2024/01/16 03:30:28;;;;;;;2.42;2.10;;;;;;;-1.38;100.00;100704.50;1028123;28;20294;-48
2024/01/16 03:31:13;;;;;;;9.30;2.17;;;;;;;-1.40;100.00;100711.66;1024019;28;20381;-45
2024/01/16 03:31:44;;;;;;;14.82;2.70;;;;;;;-1.34;100.00;100706.69;1023706;28;20047;-45
2024/01/16 03:32:16;;;;;;;8.25;4.22;;;;;;;-1.40;100.00;100709.03;1031375;28;20622;-45
2024/01/16 03:32:48;;;;;;;8.02;2.25;;;;;;;-1.39;100.00;100708.91;1032135;28;20295;-45
2024/01/16 03:33:20;;;;;;;7.75;2.70;;;;;;;-1.40;100.00;100709.84;1036249;28;20407;-50
2024/01/16 03:33:52;;;;;;;7.35;2.35;;;;;;;-1.38;100.00;100696.66;1035263;28;20794;-45
2024/01/16 03:34:24;;;;;;;3.67;2.00;;;;;;;-1.37;100.00;100709.59;1028134;28;20610;-45
2024/01/16 03:34:55;;;;;;;6.28;2.28;;;;;;;-1.35;100.00;100706.84;1027195;28;20313;-45
2024/01/16 03:35:27;;;;;;;7.00;3.03;;;;;;;-1.34;100.00;100708.50;1027264;28;20457;-46
2024/01/16 03:35:59;;;;;;;8.52;3.22;;;;;;;-1.32;100.00;100710.00;1026635;28;20784;-45
2024/01/16 03:36:30;;;;;;;4.95;2.53;;;;;;;-1.31;100.00;100711.66;1029892;28;20046;-45
2024/01/16 03:37:02;;;;;;;5.85;3.28;;;;;;;-1.36;100.00;100705.19;1031344;28;20752;-46
2024/01/16 03:37:34;;;;;;;7.97;2.22;;;;;;;-1.31;100.00;100711.66;1031021;28;20305;-46
2024/01/16 03:38:06;;;;;;;9.93;3.00;;;;;;;-1.35;100.00;100712.06;1031080;28;20348;-45
2024/01/16 03:38:38;;;;;;;6.18;2.50;;;;;;;-1.39;100.00;100710.69;1031197;28;20313;-44
2024/01/16 03:39:11;;;;;;;9.13;3.55;;;;;;;-1.36;100.00;100700.81;1031348;28;20305;-49
2024/01/16 03:39:44;;;;;;;6.32;2.47;;;;;;;-1.43;100.00;100710.16;1034102;28;21318;-49
2024/01/16 03:40:16;;;;;;;12.55;2.72;;;;;;;-1.36;100.00;100707.81;1033019;28;20300;-49
2024/01/16 03:40:48;;;;;;;8.50;2.94;;;;;;;-1.32;100.00;100709.19;1033090;28;20308;-50
2024/01/16 03:41:19;;;;;;;9.15;2.88;;;;;;;-1.34;100.00;100705.88;1033752;28;20060;-50
2024/01/16 03:41:52;;;;;;;17.73;4.28;;;;;;;-1.34;100.00;100703.28;1030203;28;20297;-50
2024/01/16 03:42:24;;;;;;;6.13;3.10;;;;;;;-1.34;100.00;100709.31;1030315;28;20293;-50
2024/01/16 03:42:55;;;;;;;8.32;2.75;;;;;;;-1.36;100.00;100702.59;1028406;28;20305;-50
2024/01/16 03:43:27;;;;;;;5.10;3.13;;;;;;;-1.32;100.00;100704.78;1031218;28;20895;-50
2024/01/16 03:43:59;;;;;;;15.38;4.05;;;;;;;-1.34;100.00;100716.34;1028112;28;20298;-52
2024/01/16 03:44:30;;;;;;;6.40;3.00;;;;;;;-1.30;100.00;100708.06;1028202;28;20302;-52
2024/01/16 03:45:02;;;;;;;4.60;3.08;;;;;;;-1.32;100.00;100701.34;1027666;28;20293;-50
2024/01/16 03:45:34;;;;;;;9.05;3.47;;;;;;;-1.34;100.00;100705.88;1027675;28;20795;-50
2024/01/16 03:46:05;;;;;;;9.98;3.05;;;;;;;-1.37;100.00;100716.59;1029078;28;20302;-51
2024/01/16 03:46:37;;;;;;;8.73;3.42;;;;;;;-1.41;100.00;100705.59;1027419;28;20309;-50
2024/01/16 03:47:09;;;;;;;13.05;3.40;;;;;;;-1.38;100.00;100707.09;1027458;28;20362;-51
2024/01/16 03:47:40;;;;;;;8.57;3.15;;;;;;;-1.44;100.00;100699.84;1027369;28;20699;-52
2024/01/16 03:48:12;;;;;;;8.38;3.47;;;;;;;-1.53;100.00;100700.72;1028571;28;20310;-51
2024/01/16 03:48:44;;;;;;;10.55;3.38;;;;;;;-1.61;100.00;100699.63;1029919;28;20806;-50
2024/01/16 03:49:16;;;;;;;11.45;3.50;;;;;;;-1.42;100.00;100703.13;1027657;28;20320;-50
2024/01/16 03:49:47;;;;;;;7.32;3.30;;;;;;;-1.40;100.00;100703.81;1029311;28;20290;-51
2024/01/16 03:50:19;;;;;;;10.88;4.13;;;;;;;-1.42;100.00;100703.13;1032403;28;20296;-50
2024/01/16 03:50:51;;;;;;;10.30;3.45;;;;;;;-1.43;100.00;100694.47;1031028;28;20297;-50
2024/01/16 03:51:23;;;;;;;11.52;3.80;;;;;;;-1.44;100.00;100697.22;1034733;28;20315;-50
2024/01/16 03:51:54;;;;;;;8.95;3.70;;;;;;;-1.45;100.00;100699.03;1034531;28;20804;-49
2024/01/16 03:52:26;;;;;;;8.25;3.20;;;;;;;-1.43;100.00;100701.50;1031843;28;20869;-49
2024/01/16 03:52:58;;;;;;;12.07;3.28;;;;;;;-1.40;100.00;100701.19;1027019;28;20306;-51
2024/01/16 03:53:29;;;;;;;20.64;5.42;;;;;;;-1.42;100.00;100695.31;1028931;28;20337;-50
2024/01/16 03:54:01;;;;;;;10.40;4.53;;;;;;;-1.39;100.00;100695.00;1029687;28;20054;-50
2024/01/16 03:54:33;;;;;;;12.90;3.60;;;;;;;-1.41;100.00;100694.34;1027810;28;20701;-50
2024/01/16 03:55:05;;;;;;;12.25;3.70;;;;;;;-1.44;100.00;100692.00;1033082;28;20653;-52
2024/01/16 03:55:37;;;;;;;7.00;2.88;;;;;;;-1.42;100.00;100692.69;1034558;28;20304;-50
2024/01/16 03:56:08;;;;;;;7.15;3.17;;;;;;;-1.33;100.00;100702.31;1031391;28;20301;-50
2024/01/16 03:56:40;;;;;;;9.50;3.53;;;;;;;-1.39;100.00;100702.84;1027149;28;20972;-46
2024/01/16 03:57:12;;;;;;;14.10;3.65;;;;;;;-1.35;100.00;100704.25;1026106;28;20306;-46
2024/01/16 03:57:44;;;;;;;5.90;2.88;;;;;;;-1.33;100.00;100703.13;1027522;28;20854;-47
2024/01/16 03:58:16;;;;;;;5.60;3.20;;;;;;;-1.35;100.00;100699.00;1026900;28;20298;-45
2024/01/16 03:58:47;;;;;;;4.82;3.03;;;;;;;-1.35;100.00;100704.25;1030811;28;20324;-47
2024/01/16 03:59:19;;;;;;;12.40;4.03;;;;;;;-1.44;100.00;100699.84;1031908;28;20297;-50
2024/01/16 03:59:51;;;;;;;9.82;3.28;;;;;;;-1.40;100.00;100698.59;1031230;28;20350;-49
2024/01/16 04:00:22;;;;;;;10.63;3.40;;;;;;;-1.40;100.00;100704.63;1034076;28;20053;-50
2024/01/16 04:00:54;;;;;;;8.55;3.33;;;;;;;-1.36;100.00;100715.66;1034799;28;20289;-49
2024/01/16 04:01:38;;;;;;;10.07;3.67;;;;;;;-1.39;100.00;100702.84;1031468;28;20711;-50
2024/01/16 04:02:10;;;;;;;9.35;3.50;;;;;;;-1.44;100.00;100710.28;1031121;28;20436;-46
2024/01/16 04:02:41;;;;;;;11.45;4.00;;;;;;;-1.37;100.00;100706.13;1031381;28;20301;-46
2024/01/16 04:03:13;;;;;;;8.58;3.66;;;;;;;-1.43;100.00;100701.50;1031679;28;20411;-47
2024/01/16 04:03:45;;;;;;;4.65;3.15;;;;;;;-1.36;100.00;100711.25;1032489;28;20040;-46
2024/01/16 04:04:16;;;;;;;8.52;3.35;;;;;;;-1.34;100.00;100703.28;1034219;28;20338;-46
2024/01/16 04:04:48;;;;;;;7.05;3.60;;;;;;;-1.35;100.00;100704.25;1033757;28;20358;-50